createdAt,value
2019-01-30T00:04:16.018Z,4.97
2019-01-30T00:09:26.679Z,4.87
2019-01-30T00:14:33.225Z,4.79
2019-01-30T00:19:39.542Z,4.65
2019-01-30T00:24:47.079Z,4.67
2019-01-30T00:30:03.668Z,4.65
2019-01-30T00:35:02.387Z,4.73
2019-01-30T00:40:18.235Z,4.55
2019-01-30T00:45:25.668Z,4.45
2019-01-30T00:50:32.628Z,4.51
2019-01-30T00:55:39.196Z,4.47
2019-01-30T01:00:45.428Z,4.50
2019-01-30T01:05:51.970Z,4.63
2019-01-30T01:10:58.666Z,4.52
2019-01-30T01:16:06.608Z,4.56
2019-01-30T01:21:13.492Z,4.63
2019-01-30T01:26:20.804Z,4.71
2019-01-30T01:31:27.372Z,4.34
2019-01-30T01:36:35.190Z,4.26
2019-01-30T01:41:41.570Z,4.30
2019-01-30T01:46:48.683Z,4.12
2019-01-30T01:51:55.534Z,4.18
2019-01-30T01:57:02.188Z,4.19
2019-01-30T02:02:08.608Z,4.08
2019-01-30T02:07:15.095Z,4.04
2019-01-30T02:12:22.089Z,4.14
2019-01-30T02:17:29.332Z,3.95
2019-01-30T02:22:36.634Z,3.96
2019-01-30T02:27:46.880Z,4.07
2019-01-30T02:32:54.721Z,4.10
2019-01-30T02:38:02.263Z,4.16
2019-01-30T02:43:08.991Z,4.04
2019-01-30T02:48:16.981Z,4.11
2019-01-30T02:53:23.991Z,4.14
2019-01-30T02:58:32.392Z,4.19
2019-01-30T03:03:40.939Z,4.31
2019-01-30T03:08:46.881Z,4.21
2019-01-30T03:13:53.422Z,4.22
2019-01-30T03:19:00.135Z,4.10
2019-01-30T03:24:06.774Z,4.25
2019-01-30T03:29:13.496Z,4.22
2019-01-30T03:34:20.123Z,4.31
2019-01-30T03:39:26.717Z,4.39
2019-01-30T03:44:35.462Z,4.24
2019-01-30T03:49:42.602Z,4.11
2019-01-30T03:54:50.008Z,3.94
2019-01-30T03:59:57.122Z,3.93
2019-01-30T04:05:05.339Z,4.16
2019-01-30T04:10:21.237Z,4.12
2019-01-30T04:15:29.209Z,4.10
2019-01-30T04:20:37.403Z,3.96
2019-01-30T04:25:45.131Z,4.13
2019-01-30T04:30:53.319Z,4.09
2019-01-30T04:36:00.497Z,3.92
2019-01-30T04:41:07.802Z,3.94
2019-01-30T04:46:14.847Z,3.77
2019-01-30T04:51:22.168Z,3.94
2019-01-30T04:56:29.601Z,3.67
2019-01-30T05:01:36.792Z,3.72
2019-01-30T05:06:45.242Z,3.80
2019-01-30T05:11:52.882Z,3.52
2019-01-30T05:17:00.612Z,3.65
2019-01-30T05:22:09.586Z,3.54
2019-01-30T05:27:16.874Z,3.66
2019-01-30T05:32:24.137Z,3.62
2019-01-30T05:37:31.123Z,3.74
2019-01-30T05:42:38.622Z,3.77
2019-01-30T05:47:45.928Z,3.70
2019-01-30T05:52:53.947Z,3.64
2019-01-30T05:58:05.271Z,3.73
2019-01-30T06:03:12.824Z,3.75
2019-01-30T06:08:20.510Z,3.64
2019-01-30T06:13:27.323Z,3.64
2019-01-30T06:18:34.757Z,3.64
2019-01-30T06:23:42.038Z,3.53
2019-01-30T06:28:49.355Z,3.66
2019-01-30T06:33:57.885Z,3.70
2019-01-30T06:39:07.179Z,3.55
2019-01-30T06:44:14.147Z,3.62
2019-01-30T06:49:23.436Z,3.74
2019-01-30T06:54:31.039Z,3.73
2019-01-30T06:59:38.950Z,3.77
2019-01-30T07:04:45.488Z,3.73
2019-01-30T07:09:52.210Z,3.90
2019-01-30T07:15:00.679Z,3.95
2019-01-30T07:20:13.331Z,4.10
2019-01-30T07:25:23.555Z,4.18
2019-01-30T07:30:34.119Z,4.18
2019-01-30T07:35:42.369Z,4.24
2019-01-30T07:40:50.379Z,4.14
2019-01-30T07:45:58.033Z,4.36
2019-01-30T07:51:06.249Z,4.47
2019-01-30T07:56:14.245Z,4.42
2019-01-30T08:01:22.087Z,4.58
2019-01-30T08:06:30.046Z,4.74
2019-01-30T08:11:37.795Z,4.79
2019-01-30T08:16:47.978Z,4.86
2019-01-30T08:21:54.999Z,5.17
2019-01-30T08:27:03.942Z,5.22
2019-01-30T08:32:11.744Z,5.24
2019-01-30T08:37:18.996Z,5.04
2019-01-30T08:42:26.029Z,5.56
2019-01-30T08:47:35.122Z,5.47
2019-01-30T08:52:43.174Z,5.58
2019-01-30T08:57:50.951Z,5.65
2019-01-30T09:02:58.286Z,5.57
2019-01-30T09:08:05.752Z,5.91
2019-01-30T09:13:12.398Z,6.24
2019-01-30T09:18:19.646Z,6.31
2019-01-30T09:23:28.277Z,6.45
2019-01-30T09:28:34.844Z,6.56
2019-01-30T09:33:41.333Z,6.99
2019-01-30T09:38:48.758Z,7.32
2019-01-30T09:43:55.588Z,7.11
2019-01-30T09:49:02.983Z,7.03
2019-01-30T09:54:10.112Z,6.84
2019-01-30T09:59:17.177Z,7.03
2019-01-30T10:04:25.487Z,7.33
2019-01-30T10:09:38.146Z,7.54
2019-01-30T10:14:49.588Z,7.88
2019-01-30T10:19:58.081Z,7.50
2019-01-30T10:25:10.599Z,7.73
2019-01-30T10:30:25.484Z,7.83
2019-01-30T10:35:35.255Z,8.39
2019-01-30T10:40:43.888Z,8.69
2019-01-30T10:45:52.087Z,8.54
2019-01-30T10:51:00.148Z,9.04
2019-01-30T10:56:07.329Z,9.22
2019-01-30T11:01:15.115Z,9.30
2019-01-30T11:06:23.640Z,9.64
2019-01-30T11:11:30.431Z,9.80
2019-01-30T11:16:39.017Z,9.63
2019-01-30T11:21:46.113Z,9.23
2019-01-30T11:26:53.686Z,9.12
2019-01-30T11:32:01.131Z,9.45
2019-01-30T11:37:09.140Z,9.30
2019-01-30T11:42:17.030Z,9.37
2019-01-30T11:47:25.689Z,9.92
2019-01-30T11:52:32.853Z,9.90
2019-01-30T11:57:40.807Z,10.39
2019-01-30T12:02:50.482Z,9.63
2019-01-30T12:07:59.981Z,10.20
2019-01-30T12:13:08.399Z,10.56
2019-01-30T12:18:16.012Z,10.43
2019-01-30T12:23:23.831Z,10.03
2019-01-30T12:28:33.731Z,10.33
2019-01-30T12:33:42.697Z,10.00
2019-01-30T12:38:50.514Z,9.35
2019-01-30T12:43:58.933Z,9.49
2019-01-30T12:49:06.801Z,10.20
2019-01-30T12:54:14.418Z,9.87
2019-01-30T12:59:21.849Z,9.69
2019-01-30T13:04:38.889Z,10.07
2019-01-30T13:09:43.233Z,9.96
2019-01-30T13:14:51.373Z,9.34
2019-01-30T13:19:57.712Z,9.20
2019-01-30T13:25:04.728Z,9.23
2019-01-30T13:30:14.196Z,8.72
2019-01-30T13:35:21.929Z,9.02
2019-01-30T13:40:31.270Z,9.21
2019-01-30T13:45:37.697Z,8.97
2019-01-30T13:50:43.980Z,8.84
2019-01-30T13:55:50.972Z,8.87
2019-01-30T14:00:57.866Z,8.73
2019-01-30T14:06:04.674Z,8.90
2019-01-30T14:11:11.855Z,8.83
2019-01-30T14:16:17.915Z,8.38
2019-01-30T14:21:23.543Z,8.19
2019-01-30T14:26:29.914Z,7.95
2019-01-30T14:31:36.563Z,7.96
2019-01-30T14:36:43.398Z,8.18
2019-01-30T14:41:49.803Z,7.38
2019-01-30T14:46:58.359Z,7.39
2019-01-30T14:52:04.389Z,7.75
2019-01-30T14:57:10.865Z,8.02
2019-01-30T15:02:17.380Z,8.14
2019-01-30T15:07:29.068Z,7.86
2019-01-30T15:12:34.431Z,7.77
2019-01-30T15:17:41.574Z,7.53
2019-01-30T15:22:47.663Z,7.70
2019-01-30T15:27:54.473Z,7.50
2019-01-30T15:33:01.057Z,7.50
2019-01-30T15:38:09.148Z,7.78
2019-01-30T15:43:16.548Z,7.51
2019-01-30T15:48:24.009Z,7.19
2019-01-30T15:53:29.695Z,7.16
2019-01-30T15:58:35.974Z,7.13
2019-01-30T16:03:42.619Z,7.10
2019-01-30T16:08:48.575Z,6.96
2019-01-30T16:13:57.355Z,6.93
2019-01-30T16:19:04.410Z,6.91
2019-01-30T16:24:11.023Z,6.43
2019-01-30T16:29:16.653Z,6.39
2019-01-30T16:34:24.718Z,6.47
2019-01-30T16:39:30.280Z,6.59
2019-01-30T16:44:36.806Z,6.26
2019-01-30T16:49:44.723Z,5.86
2019-01-30T16:54:52.048Z,6.12
2019-01-30T16:59:58.560Z,6.46
2019-01-30T17:05:08.480Z,6.71
2019-01-30T17:10:16.795Z,6.61
2019-01-30T17:15:31.853Z,6.40
2019-01-30T17:20:41.112Z,6.05
2019-01-30T17:25:47.525Z,5.92
2019-01-30T17:30:56.553Z,5.63
2019-01-30T17:36:02.429Z,5.91
2019-01-30T17:41:08.344Z,5.53
2019-01-30T17:46:13.964Z,5.90
2019-01-30T17:51:20.580Z,5.59
2019-01-30T17:56:26.557Z,6.01
2019-01-30T18:01:34.847Z,5.92
2019-01-30T18:06:41.309Z,5.92
2019-01-30T18:11:48.259Z,6.01
2019-01-30T18:16:54.445Z,6.05
2019-01-30T18:22:01.324Z,6.36
2019-01-30T18:27:07.343Z,6.05
2019-01-30T18:32:13.558Z,5.95
2019-01-30T18:37:19.702Z,6.30
2019-01-30T18:42:25.886Z,6.27
2019-01-30T18:47:32.213Z,5.94
2019-01-30T18:52:38.690Z,5.76
2019-01-30T18:57:45.584Z,5.79
2019-01-30T19:02:51.761Z,5.71
2019-01-30T19:07:57.672Z,5.65
2019-01-30T19:13:04.211Z,5.55
2019-01-30T19:18:11.401Z,5.44
2019-01-30T19:23:18.250Z,5.39
2019-01-30T19:28:25.361Z,5.47
2019-01-30T19:33:33.126Z,5.42
2019-01-30T19:38:40.758Z,5.31
2019-01-30T19:43:46.798Z,5.00
2019-01-30T19:48:52.855Z,5.37
2019-01-30T19:53:58.518Z,5.47
2019-01-30T19:59:04.263Z,5.50
2019-01-30T20:04:09.843Z,5.42
2019-01-30T20:09:15.762Z,5.44
2019-01-30T20:14:21.825Z,5.41
2019-01-30T20:19:27.977Z,5.47
2019-01-30T20:24:34.982Z,5.43
2019-01-30T20:29:40.935Z,5.30
2019-01-30T20:34:47.091Z,5.50
2019-01-30T20:39:53.155Z,5.36
2019-01-30T20:44:59.383Z,5.26
2019-01-30T20:50:08.433Z,5.43
2019-01-30T20:55:16.862Z,5.44
2019-01-30T21:00:25.977Z,5.57
2019-01-30T21:05:31.979Z,5.58
2019-01-30T21:10:40.005Z,5.33
2019-01-30T21:15:46.328Z,5.34
2019-01-30T21:20:51.933Z,5.27
2019-01-30T21:25:58.240Z,5.22
2019-01-30T21:31:03.814Z,5.03
2019-01-30T21:36:09.667Z,5.17
2019-01-30T21:41:15.222Z,5.27
2019-01-30T21:46:21.161Z,5.04
2019-01-30T21:51:28.593Z,4.98
2019-01-30T21:56:34.506Z,4.99
2019-01-30T22:01:41.269Z,5.19
2019-01-30T22:06:47.213Z,5.25
2019-01-30T22:11:54.763Z,5.16
2019-01-30T22:17:00.723Z,5.29
2019-01-30T22:22:06.437Z,5.34
2019-01-30T22:27:13.225Z,5.02
2019-01-30T22:32:18.957Z,4.99
2019-01-30T22:37:24.969Z,5.04
2019-01-30T22:42:32.034Z,5.08
2019-01-30T22:47:37.619Z,5.11
2019-01-30T22:52:43.907Z,4.86
2019-01-30T22:57:51.111Z,4.86
2019-01-30T23:02:57.299Z,4.77
2019-01-30T23:08:03.461Z,4.81
2019-01-30T23:13:12.183Z,4.66
2019-01-30T23:18:41.857Z,4.66
2019-01-30T23:23:59.697Z,4.58
2019-01-30T23:29:34.343Z,4.43
2019-01-30T23:34:58.604Z,4.48
2019-01-30T23:40:19.336Z,4.30
2019-01-30T23:45:35.354Z,4.40
2019-01-30T23:51:20.033Z,4.56
2019-01-30T23:56:35.203Z,4.44
